createdAt,value
2022-08-17T00:02:09.838Z,24.3
2022-08-17T00:08:11.874Z,24.3
2022-08-17T00:14:37.250Z,24.3
2022-08-17T00:22:30.056Z,24.3
2022-08-17T00:28:26.922Z,24.3
2022-08-17T00:35:28.299Z,24.3
2022-08-17T00:41:17.398Z,24.3
2022-08-17T00:47:00.639Z,24.3
2022-08-17T00:53:01.065Z,24.3
2022-08-17T00:58:36.018Z,24.3
2022-08-17T01:04:37.855Z,24.3
2022-08-17T01:10:57.687Z,24.3
2022-08-17T01:16:27.116Z,24.2
2022-08-17T01:22:11.479Z,24.3
2022-08-17T01:27:52.110Z,24.3
2022-08-17T01:35:05.972Z,24.2
2022-08-17T01:40:42.285Z,24.2
2022-08-17T01:46:36.267Z,24.2
2022-08-17T01:52:13.058Z,24.2
2022-08-17T01:57:53.151Z,24.2
2022-08-17T02:04:17.254Z,24.2
2022-08-17T02:11:19.338Z,24.1
2022-08-17T02:17:27.263Z,24.2
2022-08-17T02:23:28.316Z,24.1
2022-08-17T02:29:45.952Z,24.1
2022-08-17T02:36:34.097Z,24.1
2022-08-17T02:42:15.848Z,24.1
2022-08-17T02:48:14.748Z,24.1
2022-08-17T02:55:08.171Z,24.1
2022-08-17T03:00:54.489Z,24.1
2022-08-17T03:06:31.529Z,24.1
2022-08-17T03:12:12.315Z,24.1
2022-08-17T03:17:23.951Z,24
2022-08-17T03:23:43.778Z,24
2022-08-17T03:29:38.326Z,24
2022-08-17T03:35:14.523Z,24
2022-08-17T03:41:48.605Z,24
2022-08-17T03:48:08.609Z,24
2022-08-17T03:53:47.347Z,23.9
2022-08-17T03:59:38.942Z,24
2022-08-17T04:05:22.504Z,24
2022-08-17T04:11:01.846Z,23.9
2022-08-17T04:16:33.003Z,23.9
2022-08-17T04:21:53.978Z,23.9
2022-08-17T04:28:16.524Z,24
2022-08-17T04:35:00.370Z,24
2022-08-17T04:40:43.805Z,24
2022-08-17T04:47:01.174Z,24
2022-08-17T04:53:16.556Z,24
2022-08-17T04:58:50.457Z,24
2022-08-17T05:04:49.899Z,24
2022-08-17T05:10:18.747Z,24
2022-08-17T05:16:18.183Z,24.1
2022-08-17T05:21:41.436Z,24.1
2022-08-17T05:28:15.227Z,24.1
2022-08-17T05:34:35.876Z,24.1
2022-08-17T05:40:22.882Z,24.1
2022-08-17T05:46:27.852Z,24.2
2022-08-17T05:52:25.897Z,24.2
2022-08-17T05:58:33.096Z,24.2
2022-08-17T06:04:18.058Z,24.3
2022-08-17T06:10:03.089Z,24.3
2022-08-17T06:15:51.037Z,24.3
2022-08-17T06:22:03.345Z,24.3
2022-08-17T06:27:29.066Z,24.3
2022-08-17T06:33:29.094Z,24.3
2022-08-17T06:39:28.007Z,24.4
2022-08-17T06:46:29.412Z,24.4
2022-08-17T06:52:10.788Z,24.4
2022-08-17T06:58:56.715Z,24.4
2022-08-17T07:05:17.678Z,24.4
2022-08-17T07:11:01.676Z,24.4
2022-08-17T07:16:40.436Z,24.4
2022-08-17T07:22:50.294Z,24.4
2022-08-17T07:28:57.720Z,24.4
2022-08-17T07:34:38.745Z,24.5
2022-08-17T07:41:06.564Z,24.5
2022-08-17T07:47:16.770Z,24.5
2022-08-17T07:53:40.406Z,24.5
2022-08-17T07:59:49.707Z,24.6
2022-08-17T08:06:23.360Z,24.6
2022-08-17T08:11:50.505Z,24.6
2022-08-17T08:17:49.992Z,24.6
2022-08-17T08:24:40.121Z,24.6
2022-08-17T08:30:06.359Z,24.6
2022-08-17T08:37:35.702Z,24.6
2022-08-17T08:43:14.113Z,24.6
2022-08-17T08:51:07.106Z,24.7
2022-08-17T08:56:59.135Z,24.7
2022-08-17T09:04:18.109Z,24.7
2022-08-17T09:11:04.881Z,24.8
2022-08-17T09:17:04.869Z,24.8
2022-08-17T09:24:01.990Z,24.8
2022-08-17T09:29:40.518Z,24.8
2022-08-17T09:35:33.794Z,24.8
2022-08-17T09:41:19.472Z,24.8
2022-08-17T09:47:12.000Z,24.8
2022-08-17T09:53:32.241Z,24.8
2022-08-17T10:00:11.783Z,24.8
2022-08-17T10:05:55.027Z,24.8
2022-08-17T10:11:50.672Z,24.8
2022-08-17T10:18:14.940Z,24.8
2022-08-17T10:24:18.805Z,24.8
2022-08-17T10:31:55.927Z,24.9
2022-08-17T10:37:38.795Z,24.9
2022-08-17T10:43:41.104Z,24.8
2022-08-17T10:50:41.791Z,24.9
2022-08-17T10:56:24.114Z,24.9
2022-08-17T11:02:07.733Z,24.9
2022-08-17T11:07:44.501Z,24.9
2022-08-17T11:13:23.082Z,24.9
2022-08-17T11:19:06.924Z,24.9
2022-08-17T11:24:47.503Z,24.9
2022-08-17T11:30:34.671Z,25
2022-08-17T11:36:26.442Z,25
2022-08-17T11:41:55.078Z,25
2022-08-17T11:47:30.765Z,25
2022-08-17T11:53:44.299Z,25.1
2022-08-17T12:00:16.501Z,25.1
2022-08-17T12:05:52.028Z,25.1
2022-08-17T12:12:14.011Z,25.1
2022-08-17T12:19:04.620Z,25.1
2022-08-17T12:24:50.128Z,25.1
2022-08-17T12:31:34.984Z,25.1
2022-08-17T12:37:04.917Z,25.2
2022-08-17T12:43:13.854Z,25.1
2022-08-17T12:49:15.608Z,25.2
2022-08-17T12:55:17.811Z,25.2
2022-08-17T13:01:10.648Z,25.2
2022-08-17T13:06:59.623Z,25.2
2022-08-17T13:12:48.144Z,25.2
2022-08-17T13:18:36.596Z,25.2
2022-08-17T13:24:10.097Z,25.2
2022-08-17T13:29:59.815Z,25.2
2022-08-17T13:36:53.024Z,25.3
2022-08-17T13:42:20.394Z,25.2
2022-08-17T13:48:39.502Z,25.1
2022-08-17T13:54:39.948Z,25.2
2022-08-17T14:01:17.398Z,25.3
2022-08-17T14:07:25.596Z,25.2
2022-08-17T14:13:11.787Z,25.3
2022-08-17T14:19:45.034Z,25.2
2022-08-17T14:25:34.177Z,25.2
2022-08-17T14:31:50.986Z,25.3
2022-08-17T14:37:37.512Z,25.2
2022-08-17T14:43:18.757Z,25.3
2022-08-17T14:49:13.695Z,25.3
2022-08-17T14:55:06.931Z,25.3
2022-08-17T15:01:18.362Z,25.2
2022-08-17T15:06:42.346Z,25.3
2022-08-17T15:12:28.676Z,25.2
2022-08-17T15:18:44.097Z,25.3
2022-08-17T15:24:25.675Z,25.3
2022-08-17T15:30:17.852Z,25.3
2022-08-17T15:35:59.971Z,25.2
2022-08-17T15:41:57.995Z,25.3
2022-08-17T15:47:41.095Z,25.2
2022-08-17T15:53:19.333Z,25.3
2022-08-17T15:59:08.721Z,25.3
2022-08-17T16:08:00.024Z,25.3
2022-08-17T16:13:54.572Z,25.2
2022-08-17T16:19:59.528Z,25.3
2022-08-17T16:26:09.273Z,25.3
2022-08-17T16:31:58.834Z,25.3
2022-08-17T16:38:18.596Z,25.2
2022-08-17T16:43:57.111Z,25.2
2022-08-17T16:49:52.709Z,25.2
2022-08-17T16:55:57.447Z,25.3
2022-08-17T17:02:09.472Z,25.2
2022-08-17T17:08:17.962Z,25.2
2022-08-17T17:14:24.729Z,25.2
2022-08-17T17:20:15.797Z,25.3
2022-08-17T17:25:55.969Z,25.2
2022-08-17T17:31:44.174Z,25.2
2022-08-17T17:37:24.997Z,25.2
2022-08-17T17:43:35.149Z,25.2
2022-08-17T17:49:48.202Z,25.2
2022-08-17T17:57:00.712Z,25.2
2022-08-17T18:02:38.480Z,25.2
2022-08-17T18:08:32.483Z,25.2
2022-08-17T18:14:54.143Z,25.1
2022-08-17T18:20:43.530Z,25.2
2022-08-17T18:26:33.541Z,25.3
2022-08-17T18:32:05.100Z,25.2
2022-08-17T18:38:19.430Z,25.2
2022-08-17T18:44:09.671Z,25.1
2022-08-17T18:50:05.121Z,25.1
2022-08-17T18:55:58.981Z,25.1
2022-08-17T19:01:42.103Z,25.1
2022-08-17T19:07:36.994Z,25.1
2022-08-17T19:13:01.144Z,25.1
2022-08-17T19:18:48.265Z,25.1
2022-08-17T19:24:27.685Z,25.1
2022-08-17T19:31:17.898Z,25.1
2022-08-17T19:36:47.423Z,25.1
2022-08-17T19:42:48.976Z,25.1
2022-08-17T19:49:01.885Z,25.1
2022-08-17T19:55:13.818Z,25.1
2022-08-17T20:00:59.597Z,25
2022-08-17T20:07:14.149Z,25.1
2022-08-17T20:12:51.953Z,25.1
2022-08-17T20:18:47.566Z,25.1
2022-08-17T20:24:48.444Z,25
2022-08-17T20:30:29.724Z,25
2022-08-17T20:36:00.401Z,25
2022-08-17T20:41:40.657Z,25
2022-08-17T20:46:47.082Z,25
2022-08-17T20:53:06.272Z,25
2022-08-17T20:58:38.494Z,24.9
2022-08-17T21:04:23.218Z,25
2022-08-17T21:09:57.185Z,25
2022-08-17T21:16:12.767Z,24.9
2022-08-17T21:22:14.598Z,25
2022-08-17T21:27:56.886Z,24.9
2022-08-17T21:34:24.298Z,24.9
2022-08-17T21:39:56.156Z,24.9
2022-08-17T21:45:37.287Z,24.9
2022-08-17T21:51:19.208Z,24.9
2022-08-17T21:56:40.214Z,24.9
2022-08-17T22:02:41.674Z,24.9
2022-08-17T22:08:04.193Z,24.9
2022-08-17T22:13:33.826Z,24.9
2022-08-17T22:19:48.763Z,24.9
2022-08-17T22:25:29.980Z,24.9
2022-08-17T22:31:17.250Z,24.9
2022-08-17T22:37:00.494Z,24.9
2022-08-17T22:42:46.749Z,24.9
2022-08-17T22:48:26.744Z,24.9
2022-08-17T22:54:18.953Z,24.8
2022-08-17T22:59:48.148Z,24.8
2022-08-17T23:05:42.131Z,24.9
2022-08-17T23:11:18.870Z,24.8
2022-08-17T23:17:13.800Z,24.8
2022-08-17T23:22:53.167Z,24.8
2022-08-17T23:28:16.411Z,24.8
2022-08-17T23:33:27.000Z,24.8
2022-08-17T23:39:16.434Z,24.8
2022-08-17T23:45:04.345Z,24.8
2022-08-17T23:50:51.308Z,24.8
2022-08-17T23:56:43.055Z,24.8
